sensor_id;sensor_type;location;lat;lon;timestamp;pressure;altitude;pressure_sealevel;temperature;humidity
13367;BME280;6752;52.612;13.630;2023-07-24T00:01:34;99924.11;;;17.70;100.00
13367;BME280;6752;52.612;13.630;2023-07-24T00:06:36;99917.31;;;17.80;100.00
13367;BME280;6752;52.612;13.630;2023-07-24T00:11:39;99903.02;;;17.90;100.00
13367;BME280;6752;52.612;13.630;2023-07-24T00:16:41;99899.38;;;17.97;100.00
13367;BME280;6752;52.612;13.630;2023-07-24T00:21:43;99904.58;;;18.03;100.00
13367;BME280;6752;52.612;13.630;2023-07-24T00:26:46;99901.16;;;18.14;100.00
13367;BME280;6752;52.612;13.630;2023-07-24T00:31:48;99896.83;;;18.20;100.00
13367;BME280;6752;52.612;13.630;2023-07-24T00:36:51;99898.34;;;18.19;100.00
13367;BME280;6752;52.612;13.630;2023-07-24T00:41:53;99893.87;;;18.28;100.00
13367;BME280;6752;52.612;13.630;2023-07-24T00:46:55;99890.94;;;18.32;100.00
13367;BME280;6752;52.612;13.630;2023-07-24T00:51:58;99888.62;;;18.29;100.00
13367;BME280;6752;52.612;13.630;2023-07-24T00:57:01;99889.03;;;18.30;100.00
13367;BME280;6752;52.612;13.630;2023-07-24T01:02:02;99873.65;;;18.23;100.00
13367;BME280;6752;52.612;13.630;2023-07-24T01:07:04;99867.84;;;18.25;100.00
13367;BME280;6752;52.612;13.630;2023-07-24T01:12:19;99856.13;;;18.21;100.00
13367;BME280;6752;52.612;13.630;2023-07-24T01:17:20;99858.33;;;18.10;100.00
13367;BME280;6752;52.612;13.630;2023-07-24T01:27:31;99843.12;;;17.98;100.00
13367;BME280;6752;52.612;13.630;2023-07-24T01:32:33;99840.97;;;17.92;100.00
13367;BME280;6752;52.612;13.630;2023-07-24T01:37:35;99842.47;;;17.94;100.00
13367;BME280;6752;52.612;13.630;2023-07-24T01:42:37;99837.83;;;17.89;100.00
13367;BME280;6752;52.612;13.630;2023-07-24T01:47:39;99840.56;;;17.92;100.00
13367;BME280;6752;52.612;13.630;2023-07-24T01:52:42;99836.61;;;18.03;100.00
13367;BME280;6752;52.612;13.630;2023-07-24T01:57:44;99824.70;;;18.08;100.00
13367;BME280;6752;52.612;13.630;2023-07-24T02:02:46;99833.23;;;18.09;100.00
13367;BME280;6752;52.612;13.630;2023-07-24T02:07:49;99827.11;;;18.14;100.00
13367;BME280;6752;52.612;13.630;2023-07-24T02:12:51;99819.39;;;18.14;100.00
13367;BME280;6752;52.612;13.630;2023-07-24T02:17:54;99819.19;;;18.22;100.00
13367;BME280;6752;52.612;13.630;2023-07-24T02:22:56;99814.61;;;18.24;100.00
13367;BME280;6752;52.612;13.630;2023-07-24T02:27:58;99818.72;;;18.27;100.00
13367;BME280;6752;52.612;13.630;2023-07-24T02:33:01;99800.20;;;18.30;100.00
13367;BME280;6752;52.612;13.630;2023-07-24T02:38:03;99800.98;;;18.33;100.00
13367;BME280;6752;52.612;13.630;2023-07-24T02:43:05;99807.94;;;18.40;100.00
13367;BME280;6752;52.612;13.630;2023-07-24T02:48:08;99812.44;;;18.33;100.00
13367;BME280;6752;52.612;13.630;2023-07-24T02:53:10;99811.08;;;18.31;100.00
13367;BME280;6752;52.612;13.630;2023-07-24T02:58:13;99818.03;;;18.38;100.00
13367;BME280;6752;52.612;13.630;2023-07-24T03:03:15;99823.50;;;18.31;100.00
13367;BME280;6752;52.612;13.630;2023-07-24T03:08:17;99830.19;;;18.37;100.00
13367;BME280;6752;52.612;13.630;2023-07-24T03:13:20;99837.72;;;18.40;100.00
13367;BME280;6752;52.612;13.630;2023-07-24T03:18:22;99841.69;;;18.44;100.00
13367;BME280;6752;52.612;13.630;2023-07-24T03:23:25;99836.11;;;18.61;100.00
13367;BME280;6752;52.612;13.630;2023-07-24T03:28:27;99837.36;;;18.85;100.00
13367;BME280;6752;52.612;13.630;2023-07-24T03:33:29;99828.32;;;19.01;100.00
13367;BME280;6752;52.612;13.630;2023-07-24T03:38:32;99834.03;;;18.98;100.00
13367;BME280;6752;52.612;13.630;2023-07-24T03:43:34;99838.33;;;18.97;100.00
13367;BME280;6752;52.612;13.630;2023-07-24T03:48:36;99834.59;;;19.07;100.00
13367;BME280;6752;52.612;13.630;2023-07-24T03:53:39;99833.28;;;19.11;100.00
13367;BME280;6752;52.612;13.630;2023-07-24T03:58:41;99831.70;;;19.14;100.00
13367;BME280;6752;52.612;13.630;2023-07-24T04:03:43;99841.21;;;19.27;100.00
13367;BME280;6752;52.612;13.630;2023-07-24T04:08:45;99848.77;;;18.79;100.00
13367;BME280;6752;52.612;13.630;2023-07-24T04:13:48;99844.18;;;18.81;100.00
13367;BME280;6752;52.612;13.630;2023-07-24T04:18:50;99850.22;;;18.74;100.00
13367;BME280;6752;52.612;13.630;2023-07-24T04:23:53;99833.84;;;18.70;100.00
13367;BME280;6752;52.612;13.630;2023-07-24T04:28:55;99828.99;;;18.72;100.00
13367;BME280;6752;52.612;13.630;2023-07-24T04:33:57;99837.23;;;18.74;100.00
13367;BME280;6752;52.612;13.630;2023-07-24T04:39:00;99830.93;;;18.71;100.00
13367;BME280;6752;52.612;13.630;2023-07-24T04:44:02;99821.31;;;18.88;100.00
13367;BME280;6752;52.612;13.630;2023-07-24T04:49:05;99820.27;;;18.83;100.00
13367;BME280;6752;52.612;13.630;2023-07-24T04:54:07;99816.46;;;18.89;100.00
13367;BME280;6752;52.612;13.630;2023-07-24T04:59:09;99812.92;;;18.86;100.00
13367;BME280;6752;52.612;13.630;2023-07-24T05:04:12;99823.39;;;19.08;100.00
13367;BME280;6752;52.612;13.630;2023-07-24T05:09:14;99828.12;;;19.16;100.00
13367;BME280;6752;52.612;13.630;2023-07-24T05:14:16;99827.05;;;19.03;100.00
13367;BME280;6752;52.612;13.630;2023-07-24T05:19:19;99817.73;;;19.55;100.00
13367;BME280;6752;52.612;13.630;2023-07-24T05:24:21;99820.13;;;19.85;100.00
13367;BME280;6752;52.612;13.630;2023-07-24T05:29:24;99802.13;;;20.18;100.00
13367;BME280;6752;52.612;13.630;2023-07-24T05:34:26;99806.84;;;20.47;100.00
13367;BME280;6752;52.612;13.630;2023-07-24T05:39:29;99805.61;;;20.67;100.00
13367;BME280;6752;52.612;13.630;2023-07-24T05:44:31;99791.31;;;21.37;100.00
13367;BME280;6752;52.612;13.630;2023-07-24T05:49:33;99796.69;;;21.56;100.00
13367;BME280;6752;52.612;13.630;2023-07-24T05:54:36;99792.63;;;21.73;100.00
13367;BME280;6752;52.612;13.630;2023-07-24T05:59:38;99783.91;;;21.62;100.00
13367;BME280;6752;52.612;13.630;2023-07-24T06:04:40;99776.78;;;21.54;100.00
13367;BME280;6752;52.612;13.630;2023-07-24T06:09:42;99767.73;;;21.19;100.00
13367;BME280;6752;52.612;13.630;2023-07-24T06:14:44;99770.56;;;21.95;100.00
13367;BME280;6752;52.612;13.630;2023-07-24T06:19:46;99766.93;;;22.52;100.00
13367;BME280;6752;52.612;13.630;2023-07-24T06:24:48;99756.81;;;22.93;96.17
13367;BME280;6752;52.612;13.630;2023-07-24T06:29:50;99752.81;;;22.84;95.26
13367;BME280;6752;52.612;13.630;2023-07-24T06:34:52;99746.79;;;23.25;91.25
13367;BME280;6752;52.612;13.630;2023-07-24T06:39:54;99745.04;;;23.52;90.57
13367;BME280;6752;52.612;13.630;2023-07-24T06:44:57;99748.34;;;23.86;83.94
13367;BME280;6752;52.612;13.630;2023-07-24T06:49:59;99744.27;;;23.80;83.46
13367;BME280;6752;52.612;13.630;2023-07-24T06:55:02;99738.69;;;24.40;82.63
13367;BME280;6752;52.612;13.630;2023-07-24T07:00:04;99741.52;;;24.56;78.58
13367;BME280;6752;52.612;13.630;2023-07-24T07:05:06;99728.73;;;24.95;75.74
13367;BME280;6752;52.612;13.630;2023-07-24T07:10:09;99720.86;;;25.18;74.08
13367;BME280;6752;52.612;13.630;2023-07-24T07:15:11;99719.79;;;25.10;74.30
13367;BME280;6752;52.612;13.630;2023-07-24T07:20:14;99717.75;;;25.79;73.15
13367;BME280;6752;52.612;13.630;2023-07-24T07:25:16;99709.66;;;26.29;69.62
13367;BME280;6752;52.612;13.630;2023-07-24T07:30:18;99694.97;;;26.26;68.40
13367;BME280;6752;52.612;13.630;2023-07-24T07:35:21;99686.97;;;26.95;68.06
13367;BME280;6752;52.612;13.630;2023-07-24T07:40:23;99698.81;;;26.64;65.56
13367;BME280;6752;52.612;13.630;2023-07-24T07:45:25;99703.14;;;27.00;65.91
13367;BME280;6752;52.612;13.630;2023-07-24T07:50:28;99703.52;;;27.68;64.74
13367;BME280;6752;52.612;13.630;2023-07-24T07:55:30;99713.27;;;28.14;61.48
13367;BME280;6752;52.612;13.630;2023-07-24T08:00:32;99726.19;;;27.37;62.41
13367;BME280;6752;52.612;13.630;2023-07-24T08:05:34;99716.59;;;28.02;62.33
13367;BME280;6752;52.612;13.630;2023-07-24T08:10:39;99719.50;;;27.76;61.13
13367;BME280;6752;52.612;13.630;2023-07-24T08:15:41;99704.33;;;27.77;59.71
13367;BME280;6752;52.612;13.630;2023-07-24T08:20:44;99698.14;;;28.48;59.03
13367;BME280;6752;52.612;13.630;2023-07-24T08:25:55;99700.56;;;27.93;59.38
13367;BME280;6752;52.612;13.630;2023-07-24T08:30:58;99682.68;;;28.38;58.89
13367;BME280;6752;52.612;13.630;2023-07-24T08:36:03;99675.23;;;29.16;56.65
13367;BME280;6752;52.612;13.630;2023-07-24T08:41:05;99672.99;;;29.87;56.15
13367;BME280;6752;52.612;13.630;2023-07-24T08:46:07;99667.88;;;29.48;56.62
13367;BME280;6752;52.612;13.630;2023-07-24T08:51:13;99660.19;;;28.35;56.83
13367;BME280;6752;52.612;13.630;2023-07-24T08:56:15;99642.52;;;27.76;58.28
13367;BME280;6752;52.612;13.630;2023-07-24T09:01:17;99644.67;;;27.98;57.72
13367;BME280;6752;52.612;13.630;2023-07-24T09:06:19;99649.03;;;28.21;56.50
13367;BME280;6752;52.612;13.630;2023-07-24T09:11:22;99630.36;;;28.87;56.13
13367;BME280;6752;52.612;13.630;2023-07-24T09:16:27;99635.45;;;28.64;56.82
13367;BME280;6752;52.612;13.630;2023-07-24T09:21:29;99625.64;;;28.91;58.61
13367;BME280;6752;52.612;13.630;2023-07-24T09:26:31;99622.20;;;28.63;56.16
13367;BME280;6752;52.612;13.630;2023-07-24T09:31:35;99613.91;;;28.60;58.57
13367;BME280;6752;52.612;13.630;2023-07-24T09:36:39;99615.27;;;27.15;61.15
13367;BME280;6752;52.612;13.630;2023-07-24T09:41:41;99608.00;;;28.64;58.51
13367;BME280;6752;52.612;13.630;2023-07-24T09:46:44;99597.78;;;28.63;56.73
13367;BME280;6752;52.612;13.630;2023-07-24T09:51:46;99608.01;;;28.21;58.33
13367;BME280;6752;52.612;13.630;2023-07-24T09:56:48;99611.47;;;27.37;59.24
13367;BME280;6752;52.612;13.630;2023-07-24T10:01:54;99620.41;;;27.88;58.59
13367;BME280;6752;52.612;13.630;2023-07-24T10:06:56;99603.58;;;28.20;58.34
13367;BME280;6752;52.612;13.630;2023-07-24T10:11:58;99596.98;;;28.63;57.40
13367;BME280;6752;52.612;13.630;2023-07-24T10:17:01;99583.27;;;28.32;56.57
13367;BME280;6752;52.612;13.630;2023-07-24T10:22:03;99567.79;;;28.38;56.69
13367;BME280;6752;52.612;13.630;2023-07-24T10:27:05;99561.78;;;29.71;55.84
13367;BME280;6752;52.612;13.630;2023-07-24T10:32:17;99538.64;;;30.47;53.75
13367;BME280;6752;52.612;13.630;2023-07-24T10:37:19;99533.66;;;30.63;51.94
13367;BME280;6752;52.612;13.630;2023-07-24T10:42:22;99518.91;;;30.12;51.70
13367;BME280;6752;52.612;13.630;2023-07-24T10:47:23;99525.48;;;30.53;50.43
13367;BME280;6752;52.612;13.630;2023-07-24T10:52:32;99513.50;;;30.13;50.06
13367;BME280;6752;52.612;13.630;2023-07-24T10:57:34;99497.94;;;30.84;50.00
13367;BME280;6752;52.612;13.630;2023-07-24T11:02:36;99499.63;;;30.92;50.04
13367;BME280;6752;52.612;13.630;2023-07-24T11:07:39;99484.59;;;31.37;49.49
13367;BME280;6752;52.612;13.630;2023-07-24T11:12:41;99459.13;;;30.80;47.20
13367;BME280;6752;52.612;13.630;2023-07-24T11:17:44;99443.89;;;31.51;47.30
13367;BME280;6752;52.612;13.630;2023-07-24T11:22:46;99434.67;;;31.58;48.63
13367;BME280;6752;52.612;13.630;2023-07-24T11:27:48;99421.47;;;30.73;46.15
13367;BME280;6752;52.612;13.630;2023-07-24T11:32:51;99412.41;;;30.18;46.59
13367;BME280;6752;52.612;13.630;2023-07-24T11:37:53;99420.91;;;29.52;47.17
13367;BME280;6752;52.612;13.630;2023-07-24T11:42:55;99404.48;;;29.67;47.82
13367;BME280;6752;52.612;13.630;2023-07-24T11:47:58;99405.33;;;29.18;49.31
13367;BME280;6752;52.612;13.630;2023-07-24T11:53:00;99402.30;;;29.06;50.95
13367;BME280;6752;52.612;13.630;2023-07-24T11:58:02;99398.33;;;29.33;50.32
13367;BME280;6752;52.612;13.630;2023-07-24T12:03:05;99396.72;;;29.19;52.31
13367;BME280;6752;52.612;13.630;2023-07-24T12:08:07;99393.87;;;28.49;51.28
13367;BME280;6752;52.612;13.630;2023-07-24T12:13:09;99390.61;;;28.79;52.10
13367;BME280;6752;52.612;13.630;2023-07-24T12:18:12;99406.81;;;28.36;50.96
13367;BME280;6752;52.612;13.630;2023-07-24T12:23:14;99396.84;;;28.17;50.68
13367;BME280;6752;52.612;13.630;2023-07-24T12:28:16;99411.48;;;27.82;51.62
13367;BME280;6752;52.612;13.630;2023-07-24T12:33:19;99486.77;;;26.41;59.69
13367;BME280;6752;52.612;13.630;2023-07-24T12:38:21;99502.29;;;24.17;84.17
13367;BME280;6752;52.612;13.630;2023-07-24T12:43:24;99475.31;;;23.67;94.68
13367;BME280;6752;52.612;13.630;2023-07-24T12:48:26;99460.89;;;23.80;96.78
13367;BME280;6752;52.612;13.630;2023-07-24T12:53:28;99457.37;;;23.71;100.00
13367;BME280;6752;52.612;13.630;2023-07-24T12:58:30;99469.84;;;23.46;100.00
13367;BME280;6752;52.612;13.630;2023-07-24T13:03:33;99457.94;;;23.81;100.00
13367;BME280;6752;52.612;13.630;2023-07-24T13:08:35;99456.38;;;25.48;100.00
13367;BME280;6752;52.612;13.630;2023-07-24T13:13:37;99463.75;;;24.23;100.00
13367;BME280;6752;52.612;13.630;2023-07-24T13:18:40;99479.19;;;24.48;100.00
13367;BME280;6752;52.612;13.630;2023-07-24T13:23:42;99475.23;;;24.01;100.00
13367;BME280;6752;52.612;13.630;2023-07-24T13:28:44;99450.69;;;23.67;100.00
13367;BME280;6752;52.612;13.630;2023-07-24T13:33:47;99431.33;;;23.46;100.00
13367;BME280;6752;52.612;13.630;2023-07-24T13:38:49;99423.89;;;23.94;100.00
13367;BME280;6752;52.612;13.630;2023-07-24T13:43:52;99431.36;;;24.40;100.00
13367;BME280;6752;52.612;13.630;2023-07-24T13:48:54;99417.85;;;24.62;100.00
13367;BME280;6752;52.612;13.630;2023-07-24T13:53:56;99402.83;;;25.37;100.00
13367;BME280;6752;52.612;13.630;2023-07-24T13:58:59;99394.41;;;25.16;100.00
13367;BME280;6752;52.612;13.630;2023-07-24T14:04:01;99387.38;;;25.33;100.00
13367;BME280;6752;52.612;13.630;2023-07-24T14:09:04;99375.61;;;25.78;100.00
13367;BME280;6752;52.612;13.630;2023-07-24T14:14:06;99377.77;;;25.83;93.70
13367;BME280;6752;52.612;13.630;2023-07-24T14:19:08;99363.32;;;25.61;98.65
13367;BME280;6752;52.612;13.630;2023-07-24T14:24:11;99358.27;;;25.59;100.00
13367;BME280;6752;52.612;13.630;2023-07-24T14:29:13;99347.37;;;26.01;92.85
13367;BME280;6752;52.612;13.630;2023-07-24T14:34:15;99329.41;;;26.23;93.48
13367;BME280;6752;52.612;13.630;2023-07-24T14:39:18;99343.27;;;26.11;90.62
13367;BME280;6752;52.612;13.630;2023-07-24T14:44:20;99335.74;;;26.65;88.56
13367;BME280;6752;52.612;13.630;2023-07-24T14:49:23;99334.03;;;26.31;86.72
13367;BME280;6752;52.612;13.630;2023-07-24T14:54:25;99340.61;;;26.09;86.21
13367;BME280;6752;52.612;13.630;2023-07-24T14:59:28;99352.56;;;25.61;87.93
13367;BME280;6752;52.612;13.630;2023-07-24T15:04:30;99348.56;;;25.60;87.07
13367;BME280;6752;52.612;13.630;2023-07-24T15:09:32;99319.11;;;25.81;87.84
13367;BME280;6752;52.612;13.630;2023-07-24T15:14:35;99310.37;;;25.04;95.88
13367;BME280;6752;52.612;13.630;2023-07-24T15:19:37;99293.23;;;25.04;94.53
13367;BME280;6752;52.612;13.630;2023-07-24T15:24:40;99281.47;;;25.09;92.07
13367;BME280;6752;52.612;13.630;2023-07-24T15:29:42;99273.33;;;25.84;85.17
13367;BME280;6752;52.612;13.630;2023-07-24T15:34:44;99270.45;;;26.11;85.82
13367;BME280;6752;52.612;13.630;2023-07-24T15:39:46;99256.63;;;26.08;83.39
13367;BME280;6752;52.612;13.630;2023-07-24T15:44:49;99246.87;;;26.01;83.39
13367;BME280;6752;52.612;13.630;2023-07-24T15:49:51;99246.75;;;26.57;79.53
13367;BME280;6752;52.612;13.630;2023-07-24T15:54:54;99240.92;;;25.79;79.10
13367;BME280;6752;52.612;13.630;2023-07-24T15:59:56;99242.32;;;25.87;80.91
13367;BME280;6752;52.612;13.630;2023-07-24T16:04:58;99237.86;;;26.61;79.36
13367;BME280;6752;52.612;13.630;2023-07-24T16:10:01;99236.38;;;26.83;71.76
13367;BME280;6752;52.612;13.630;2023-07-24T16:15:03;99239.14;;;27.17;71.02
13367;BME280;6752;52.612;13.630;2023-07-24T16:20:06;99232.51;;;26.72;76.48
13367;BME280;6752;52.612;13.630;2023-07-24T16:25:08;99218.38;;;26.26;83.31
13367;BME280;6752;52.612;13.630;2023-07-24T16:30:10;99230.01;;;26.12;84.89
13367;BME280;6752;52.612;13.630;2023-07-24T16:35:13;99212.34;;;25.92;89.13
13367;BME280;6752;52.612;13.630;2023-07-24T16:40:15;99210.50;;;25.68;89.30
13367;BME280;6752;52.612;13.630;2023-07-24T16:45:18;99204.46;;;25.80;92.57
13367;BME280;6752;52.612;13.630;2023-07-24T16:50:20;99189.66;;;25.72;93.15
13367;BME280;6752;52.612;13.630;2023-07-24T16:55:22;99188.75;;;25.32;96.40
13367;BME280;6752;52.612;13.630;2023-07-24T17:00:24;99182.96;;;25.11;96.60
13367;BME280;6752;52.612;13.630;2023-07-24T17:05:27;99186.51;;;25.09;100.00
13367;BME280;6752;52.612;13.630;2023-07-24T17:10:42;99170.00;;;24.46;100.00
13367;BME280;6752;52.612;13.630;2023-07-24T17:15:43;99179.73;;;23.75;100.00
13367;BME280;6752;52.612;13.630;2023-07-24T17:20:45;99140.28;;;22.79;92.26
13367;BME280;6752;52.612;13.630;2023-07-24T17:25:48;99082.86;;;22.50;89.58
13367;BME280;6752;52.612;13.630;2023-07-24T17:30:50;99104.61;;;22.19;91.80
13367;BME280;6752;52.612;13.630;2023-07-24T17:35:53;99106.19;;;21.80;95.55
13367;BME280;6752;52.612;13.630;2023-07-24T17:40:55;99079.55;;;21.54;95.70
13367;BME280;6752;52.612;13.630;2023-07-24T17:45:57;99255.41;;;21.59;96.10
13367;BME280;6752;52.612;13.630;2023-07-24T17:51:00;99328.58;;;18.99;100.00
13367;BME280;6752;52.612;13.630;2023-07-24T17:56:02;99288.82;;;17.59;100.00
13367;BME280;6752;52.612;13.630;2023-07-24T18:01:05;99191.75;;;18.50;100.00
13367;BME280;6752;52.612;13.630;2023-07-24T18:06:07;99212.28;;;18.37;100.00
13367;BME280;6752;52.612;13.630;2023-07-24T18:11:09;99237.30;;;18.68;100.00
13367;BME280;6752;52.612;13.630;2023-07-24T18:16:12;99303.74;;;18.64;100.00
13367;BME280;6752;52.612;13.630;2023-07-24T18:21:14;99370.23;;;17.87;100.00
13367;BME280;6752;52.612;13.630;2023-07-24T18:26:16;99392.64;;;18.15;100.00
13367;BME280;6752;52.612;13.630;2023-07-24T18:31:19;99410.47;;;18.20;100.00
13367;BME280;6752;52.612;13.630;2023-07-24T18:36:21;99444.69;;;18.29;100.00
13367;BME280;6752;52.612;13.630;2023-07-24T18:41:24;99415.95;;;18.06;100.00
13367;BME280;6752;52.612;13.630;2023-07-24T18:46:26;99389.89;;;17.89;100.00
13367;BME280;6752;52.612;13.630;2023-07-24T18:51:28;99341.92;;;18.23;100.00
13367;BME280;6752;52.612;13.630;2023-07-24T18:56:31;99304.53;;;18.24;100.00
13367;BME280;6752;52.612;13.630;2023-07-24T19:01:40;99296.53;;;18.08;100.00
13367;BME280;6752;52.612;13.630;2023-07-24T19:06:42;99254.98;;;17.82;100.00
13367;BME280;6752;52.612;13.630;2023-07-24T19:11:44;99247.69;;;17.82;100.00
13367;BME280;6752;52.612;13.630;2023-07-24T19:16:47;99260.05;;;17.98;100.00
13367;BME280;6752;52.612;13.630;2023-07-24T19:21:49;99318.65;;;18.20;100.00
13367;BME280;6752;52.612;13.630;2023-07-24T19:26:51;99347.78;;;17.86;100.00
13367;BME280;6752;52.612;13.630;2023-07-24T19:31:54;99338.55;;;18.10;100.00
13367;BME280;6752;52.612;13.630;2023-07-24T19:36:56;99333.69;;;17.88;100.00
13367;BME280;6752;52.612;13.630;2023-07-24T19:41:59;99331.56;;;17.19;100.00
13367;BME280;6752;52.612;13.630;2023-07-24T19:47:01;99343.21;;;17.04;100.00
13367;BME280;6752;52.612;13.630;2023-07-24T19:52:03;99350.35;;;17.14;100.00
13367;BME280;6752;52.612;13.630;2023-07-24T19:57:32;99358.48;;;17.34;100.00
13367;BME280;6752;52.612;13.630;2023-07-24T20:02:41;99354.13;;;17.59;100.00
13367;BME280;6752;52.612;13.630;2023-07-24T20:07:43;99335.70;;;17.38;100.00
13367;BME280;6752;52.612;13.630;2023-07-24T20:12:47;99351.76;;;17.49;100.00
13367;BME280;6752;52.612;13.630;2023-07-24T20:17:49;99352.02;;;17.50;100.00
13367;BME280;6752;52.612;13.630;2023-07-24T20:22:51;99339.55;;;17.46;100.00
13367;BME280;6752;52.612;13.630;2023-07-24T20:27:54;99342.72;;;17.46;100.00
13367;BME280;6752;52.612;13.630;2023-07-24T20:32:57;99351.77;;;17.40;100.00
13367;BME280;6752;52.612;13.630;2023-07-24T20:38:02;99372.03;;;17.30;100.00
13367;BME280;6752;52.612;13.630;2023-07-24T20:43:01;99376.34;;;17.27;100.00
13367;BME280;6752;52.612;13.630;2023-07-24T20:48:04;99374.11;;;17.29;100.00
13367;BME280;6752;52.612;13.630;2023-07-24T20:53:06;99383.28;;;17.22;100.00
13367;BME280;6752;52.612;13.630;2023-07-24T20:58:09;99405.67;;;17.15;100.00
13367;BME280;6752;52.612;13.630;2023-07-24T21:03:11;99403.18;;;17.16;100.00
13367;BME280;6752;52.612;13.630;2023-07-24T21:08:13;99407.30;;;16.95;100.00
13367;BME280;6752;52.612;13.630;2023-07-24T21:13:16;99422.61;;;16.92;100.00
13367;BME280;6752;52.612;13.630;2023-07-24T21:18:18;99438.21;;;16.99;100.00
13367;BME280;6752;52.612;13.630;2023-07-24T21:23:21;99432.84;;;16.88;100.00
13367;BME280;6752;52.612;13.630;2023-07-24T21:28:23;99437.70;;;16.85;100.00
13367;BME280;6752;52.612;13.630;2023-07-24T21:33:25;99447.27;;;16.90;100.00
13367;BME280;6752;52.612;13.630;2023-07-24T21:38:28;99452.63;;;16.91;100.00
13367;BME280;6752;52.612;13.630;2023-07-24T21:43:30;99448.71;;;17.09;100.00
13367;BME280;6752;52.612;13.630;2023-07-24T21:48:32;99442.05;;;17.00;100.00
13367;BME280;6752;52.612;13.630;2023-07-24T21:53:35;99445.86;;;16.93;100.00
13367;BME280;6752;52.612;13.630;2023-07-24T21:58:37;99449.59;;;17.02;100.00
13367;BME280;6752;52.612;13.630;2023-07-24T22:03:40;99437.69;;;16.97;100.00
13367;BME280;6752;52.612;13.630;2023-07-24T22:08:42;99446.20;;;16.98;100.00
13367;BME280;6752;52.612;13.630;2023-07-24T22:13:44;99446.77;;;16.97;100.00
13367;BME280;6752;52.612;13.630;2023-07-24T22:18:46;99442.90;;;16.98;100.00
13367;BME280;6752;52.612;13.630;2023-07-24T22:23:49;99430.13;;;16.96;100.00
13367;BME280;6752;52.612;13.630;2023-07-24T22:28:51;99427.53;;;16.95;100.00
13367;BME280;6752;52.612;13.630;2023-07-24T22:33:53;99421.32;;;16.96;100.00
13367;BME280;6752;52.612;13.630;2023-07-24T22:38:55;99429.03;;;16.85;100.00
13367;BME280;6752;52.612;13.630;2023-07-24T22:43:57;99431.33;;;16.75;100.00
13367;BME280;6752;52.612;13.630;2023-07-24T22:49:00;99431.80;;;16.70;100.00
13367;BME280;6752;52.612;13.630;2023-07-24T22:54:02;99437.70;;;16.70;100.00
13367;BME280;6752;52.612;13.630;2023-07-24T22:59:16;99438.47;;;16.76;100.00
13367;BME280;6752;52.612;13.630;2023-07-24T23:04:07;99464.40;;;16.70;100.00
13367;BME280;6752;52.612;13.630;2023-07-24T23:09:09;99477.53;;;16.61;100.00
13367;BME280;6752;52.612;13.630;2023-07-24T23:14:11;99475.59;;;16.47;100.00
13367;BME280;6752;52.612;13.630;2023-07-24T23:19:14;99475.20;;;16.44;100.00
13367;BME280;6752;52.612;13.630;2023-07-24T23:24:16;99475.02;;;16.36;100.00
13367;BME280;6752;52.612;13.630;2023-07-24T23:29:19;99472.16;;;16.29;100.00
13367;BME280;6752;52.612;13.630;2023-07-24T23:34:21;99473.70;;;16.25;100.00
13367;BME280;6752;52.612;13.630;2023-07-24T23:39:23;99490.83;;;16.17;100.00
13367;BME280;6752;52.612;13.630;2023-07-24T23:44:25;99497.30;;;16.15;100.00
13367;BME280;6752;52.612;13.630;2023-07-24T23:49:28;99495.98;;;16.04;100.00
13367;BME280;6752;52.612;13.630;2023-07-24T23:54:30;99496.11;;;16.06;100.00
13367;BME280;6752;52.612;13.630;2023-07-24T23:59:32;99503.29;;;16.02;100.00
